sensor_id;sensor_type;location;lat;lon;timestamp;pressure;altitude;pressure_sealevel;temperature;humidity
21240;BME280;10778;48.962;9.018;2024-03-02T00:00:22;97963.03;;;3.20;100.00
21240;BME280;10778;48.962;9.018;2024-03-02T00:02:49;97951.56;;;3.23;100.00
21240;BME280;10778;48.962;9.018;2024-03-02T00:05:20;97962.31;;;3.18;100.00
21240;BME280;10778;48.962;9.018;2024-03-02T00:07:52;97959.84;;;3.17;100.00
21240;BME280;10778;48.962;9.018;2024-03-02T00:10:25;97960.22;;;3.12;100.00
21240;BME280;10778;48.962;9.018;2024-03-02T00:12:55;97959.50;;;3.10;100.00
21240;BME280;10778;48.962;9.018;2024-03-02T00:18:10;97951.34;;;3.15;100.00
21240;BME280;10778;48.962;9.018;2024-03-02T00:20:37;97959.38;;;3.11;100.00
21240;BME280;10778;48.962;9.018;2024-03-02T00:23:04;97955.59;;;3.04;100.00
21240;BME280;10778;48.962;9.018;2024-03-02T00:25:44;97956.66;;;3.02;100.00
21240;BME280;10778;48.962;9.018;2024-03-02T00:28:18;97960.69;;;2.94;100.00
21240;BME280;10778;48.962;9.018;2024-03-02T00:31:08;97950.66;;;2.90;100.00
21240;BME280;10778;48.962;9.018;2024-03-02T00:33:45;97951.25;;;2.93;100.00
21240;BME280;10778;48.962;9.018;2024-03-02T00:36:13;97946.84;;;2.94;100.00
21240;BME280;10778;48.962;9.018;2024-03-02T00:38:46;97953.59;;;2.85;100.00
21240;BME280;10778;48.962;9.018;2024-03-02T00:41:25;97961.84;;;2.79;100.00
21240;BME280;10778;48.962;9.018;2024-03-02T00:44:06;97949.44;;;2.82;100.00
21240;BME280;10778;48.962;9.018;2024-03-02T00:46:34;97955.38;;;2.84;100.00
21240;BME280;10778;48.962;9.018;2024-03-02T00:49:03;97958.78;;;2.85;100.00
21240;BME280;10778;48.962;9.018;2024-03-02T00:51:31;97953.81;;;2.82;100.00
21240;BME280;10778;48.962;9.018;2024-03-02T00:54:03;97960.78;;;2.81;100.00
21240;BME280;10778;48.962;9.018;2024-03-02T00:56:30;97963.63;;;2.78;100.00
21240;BME280;10778;48.962;9.018;2024-03-02T00:58:57;97956.31;;;2.72;100.00
21240;BME280;10778;48.962;9.018;2024-03-02T01:01:23;97945.78;;;2.85;100.00
21240;BME280;10778;48.962;9.018;2024-03-02T01:03:49;97952.53;;;2.76;100.00
21240;BME280;10778;48.962;9.018;2024-03-02T01:06:16;97962.31;;;2.73;100.00
21240;BME280;10778;48.962;9.018;2024-03-02T01:08:43;97954.25;;;2.53;100.00
21240;BME280;10778;48.962;9.018;2024-03-02T01:11:09;97960.38;;;2.52;100.00
21240;BME280;10778;48.962;9.018;2024-03-02T01:13:35;97956.28;;;2.49;100.00
21240;BME280;10778;48.962;9.018;2024-03-02T01:16:01;97965.34;;;2.44;100.00
21240;BME280;10778;48.962;9.018;2024-03-02T01:18:28;97963.56;;;2.44;100.00
21240;BME280;10778;48.962;9.018;2024-03-02T01:20:54;97967.81;;;2.34;100.00
21240;BME280;10778;48.962;9.018;2024-03-02T01:23:23;97961.44;;;2.38;100.00
21240;BME280;10778;48.962;9.018;2024-03-02T01:25:50;97960.25;;;2.42;100.00
21240;BME280;10778;48.962;9.018;2024-03-02T01:28:17;97959.22;;;2.56;100.00
21240;BME280;10778;48.962;9.018;2024-03-02T01:30:45;97964.78;;;2.63;100.00
21240;BME280;10778;48.962;9.018;2024-03-02T01:33:11;97944.25;;;2.60;100.00
21240;BME280;10778;48.962;9.018;2024-03-02T01:35:37;97947.53;;;2.50;100.00
21240;BME280;10778;48.962;9.018;2024-03-02T01:38:03;97939.63;;;2.40;100.00
21240;BME280;10778;48.962;9.018;2024-03-02T01:40:35;97938.88;;;2.27;100.00
21240;BME280;10778;48.962;9.018;2024-03-02T01:43:02;97935.44;;;2.15;100.00
21240;BME280;10778;48.962;9.018;2024-03-02T01:45:29;97949.78;;;2.08;100.00
21240;BME280;10778;48.962;9.018;2024-03-02T01:47:55;97950.09;;;2.03;100.00
21240;BME280;10778;48.962;9.018;2024-03-02T01:50:28;97950.50;;;2.10;100.00
21240;BME280;10778;48.962;9.018;2024-03-02T01:52:55;97938.50;;;2.20;100.00
21240;BME280;10778;48.962;9.018;2024-03-02T01:55:21;97948.84;;;2.09;100.00
21240;BME280;10778;48.962;9.018;2024-03-02T01:57:48;97949.00;;;1.83;100.00
21240;BME280;10778;48.962;9.018;2024-03-02T02:00:15;97954.66;;;1.64;100.00
21240;BME280;10778;48.962;9.018;2024-03-02T02:02:41;97952.94;;;1.51;100.00
21240;BME280;10778;48.962;9.018;2024-03-02T02:05:07;97957.44;;;1.36;100.00
21240;BME280;10778;48.962;9.018;2024-03-02T02:07:34;97961.56;;;1.52;100.00
21240;BME280;10778;48.962;9.018;2024-03-02T02:10:01;97946.09;;;1.50;100.00
21240;BME280;10778;48.962;9.018;2024-03-02T02:12:27;97951.50;;;1.47;100.00
21240;BME280;10778;48.962;9.018;2024-03-02T02:14:53;97946.63;;;1.42;100.00
21240;BME280;10778;48.962;9.018;2024-03-02T02:17:19;97941.34;;;1.44;100.00
21240;BME280;10778;48.962;9.018;2024-03-02T02:19:45;97944.97;;;1.41;100.00
21240;BME280;10778;48.962;9.018;2024-03-02T02:22:11;97942.25;;;1.56;100.00
21240;BME280;10778;48.962;9.018;2024-03-02T02:24:41;97932.91;;;1.53;100.00
21240;BME280;10778;48.962;9.018;2024-03-02T02:27:09;97934.91;;;1.50;100.00
21240;BME280;10778;48.962;9.018;2024-03-02T02:29:36;97939.81;;;1.41;100.00
21240;BME280;10778;48.962;9.018;2024-03-02T02:32:02;97935.78;;;1.37;100.00
21240;BME280;10778;48.962;9.018;2024-03-02T02:34:28;97928.22;;;1.34;100.00
21240;BME280;10778;48.962;9.018;2024-03-02T02:36:54;97927.72;;;1.29;100.00
21240;BME280;10778;48.962;9.018;2024-03-02T02:39:21;97927.66;;;1.18;100.00
21240;BME280;10778;48.962;9.018;2024-03-02T02:41:50;97929.53;;;1.16;100.00
21240;BME280;10778;48.962;9.018;2024-03-02T02:44:16;97921.22;;;1.10;100.00
21240;BME280;10778;48.962;9.018;2024-03-02T02:46:42;97924.97;;;1.06;100.00
21240;BME280;10778;48.962;9.018;2024-03-02T02:49:08;97921.16;;;0.99;100.00
21240;BME280;10778;48.962;9.018;2024-03-02T02:51:34;97919.16;;;1.03;100.00
21240;BME280;10778;48.962;9.018;2024-03-02T02:54:00;97921.75;;;1.03;100.00
21240;BME280;10778;48.962;9.018;2024-03-02T02:56:26;97916.22;;;0.96;100.00
21240;BME280;10778;48.962;9.018;2024-03-02T02:58:52;97915.91;;;0.88;100.00
21240;BME280;10778;48.962;9.018;2024-03-02T03:01:19;97923.03;;;0.84;100.00
21240;BME280;10778;48.962;9.018;2024-03-02T03:03:45;97927.28;;;0.85;100.00
21240;BME280;10778;48.962;9.018;2024-03-02T03:06:12;97924.19;;;0.80;100.00
21240;BME280;10778;48.962;9.018;2024-03-02T03:08:38;97923.47;;;0.78;100.00
21240;BME280;10778;48.962;9.018;2024-03-02T03:11:04;97927.09;;;0.75;100.00
21240;BME280;10778;48.962;9.018;2024-03-02T03:13:31;97926.91;;;0.78;100.00
21240;BME280;10778;48.962;9.018;2024-03-02T03:15:58;97919.00;;;0.80;100.00
21240;BME280;10778;48.962;9.018;2024-03-02T03:18:23;97926.06;;;0.78;100.00
21240;BME280;10778;48.962;9.018;2024-03-02T03:20:49;97924.41;;;0.77;100.00
21240;BME280;10778;48.962;9.018;2024-03-02T03:23:15;97922.13;;;0.72;100.00
21240;BME280;10778;48.962;9.018;2024-03-02T03:25:43;97926.78;;;0.67;100.00
21240;BME280;10778;48.962;9.018;2024-03-02T03:28:09;97925.53;;;0.60;100.00
21240;BME280;10778;48.962;9.018;2024-03-02T03:30:38;97916.97;;;0.59;100.00
21240;BME280;10778;48.962;9.018;2024-03-02T03:33:05;97920.47;;;0.58;100.00
21240;BME280;10778;48.962;9.018;2024-03-02T03:35:34;97920.56;;;0.56;100.00
21240;BME280;10778;48.962;9.018;2024-03-02T03:38:00;97919.34;;;0.49;100.00
21240;BME280;10778;48.962;9.018;2024-03-02T03:40:26;97922.88;;;0.35;100.00
21240;BME280;10778;48.962;9.018;2024-03-02T03:42:52;97925.53;;;0.34;100.00
21240;BME280;10778;48.962;9.018;2024-03-02T03:45:19;97927.19;;;0.22;100.00
21240;BME280;10778;48.962;9.018;2024-03-02T03:47:45;97916.44;;;0.28;100.00
21240;BME280;10778;48.962;9.018;2024-03-02T03:50:11;97922.97;;;0.34;100.00
21240;BME280;10778;48.962;9.018;2024-03-02T03:52:38;97927.94;;;0.37;100.00
21240;BME280;10778;48.962;9.018;2024-03-02T03:55:04;97922.75;;;0.37;100.00
21240;BME280;10778;48.962;9.018;2024-03-02T03:57:33;97922.75;;;0.37;100.00
21240;BME280;10778;48.962;9.018;2024-03-02T03:59:59;97919.22;;;0.38;100.00
21240;BME280;10778;48.962;9.018;2024-03-02T04:02:26;97909.31;;;0.32;100.00
21240;BME280;10778;48.962;9.018;2024-03-02T04:04:52;97923.16;;;0.31;100.00
21240;BME280;10778;48.962;9.018;2024-03-02T04:07:18;97926.91;;;0.26;100.00
21240;BME280;10778;48.962;9.018;2024-03-02T04:09:44;97917.38;;;0.27;100.00
21240;BME280;10778;48.962;9.018;2024-03-02T04:12:10;97921.19;;;0.21;100.00
21240;BME280;10778;48.962;9.018;2024-03-02T04:14:36;97916.00;;;0.21;100.00
21240;BME280;10778;48.962;9.018;2024-03-02T04:17:03;97912.59;;;0.21;100.00
21240;BME280;10778;48.962;9.018;2024-03-02T04:19:29;97908.38;;;0.20;100.00
21240;BME280;10778;48.962;9.018;2024-03-02T04:21:55;97926.47;;;0.20;100.00
21240;BME280;10778;48.962;9.018;2024-03-02T04:24:21;97931.72;;;0.05;100.00
21240;BME280;10778;48.962;9.018;2024-03-02T04:26:47;97931.09;;;0.02;100.00
21240;BME280;10778;48.962;9.018;2024-03-02T04:29:13;97931.19;;;0.00;100.00
21240;BME280;10778;48.962;9.018;2024-03-02T04:31:39;97926.22;;;-0.03;100.00
21240;BME280;10778;48.962;9.018;2024-03-02T04:34:05;97924.25;;;0.01;100.00
21240;BME280;10778;48.962;9.018;2024-03-02T04:36:31;97925.50;;;0.08;100.00
21240;BME280;10778;48.962;9.018;2024-03-02T04:38:57;97919.94;;;0.14;100.00
21240;BME280;10778;48.962;9.018;2024-03-02T04:41:23;97923.47;;;0.13;100.00
21240;BME280;10778;48.962;9.018;2024-03-02T04:43:49;97925.31;;;0.11;100.00
21240;BME280;10778;48.962;9.018;2024-03-02T04:46:15;97924.41;;;0.12;100.00
21240;BME280;10778;48.962;9.018;2024-03-02T04:48:41;97930.44;;;-0.02;100.00
21240;BME280;10778;48.962;9.018;2024-03-02T04:51:07;97932.00;;;-0.12;100.00
21240;BME280;10778;48.962;9.018;2024-03-02T04:53:33;97932.00;;;-0.12;100.00
21240;BME280;10778;48.962;9.018;2024-03-02T04:55:59;97933.00;;;-0.15;100.00
21240;BME280;10778;48.962;9.018;2024-03-02T04:58:54;97928.28;;;0.05;100.00
21240;BME280;10778;48.962;9.018;2024-03-02T05:01:20;97928.22;;;0.19;100.00
21240;BME280;10778;48.962;9.018;2024-03-02T05:03:46;97929.88;;;0.33;100.00
21240;BME280;10778;48.962;9.018;2024-03-02T05:06:12;97929.06;;;0.33;100.00
21240;BME280;10778;48.962;9.018;2024-03-02T05:08:38;97919.00;;;0.15;100.00
21240;BME280;10778;48.962;9.018;2024-03-02T05:11:04;97926.75;;;0.02;100.00
21240;BME280;10778;48.962;9.018;2024-03-02T05:13:49;97930.94;;;-0.10;100.00
21240;BME280;10778;48.962;9.018;2024-03-02T05:16:15;97934.47;;;-0.11;100.00
21240;BME280;10778;48.962;9.018;2024-03-02T05:18:41;97925.91;;;-0.11;100.00
21240;BME280;10778;48.962;9.018;2024-03-02T05:21:07;97932.81;;;-0.12;100.00
21240;BME280;10778;48.962;9.018;2024-03-02T05:23:33;97935.09;;;-0.07;100.00
21240;BME280;10778;48.962;9.018;2024-03-02T05:25:59;97932.09;;;-0.01;100.00
21240;BME280;10778;48.962;9.018;2024-03-02T05:28:25;97924.69;;;0.07;100.00
21240;BME280;10778;48.962;9.018;2024-03-02T05:30:51;97930.50;;;0.24;100.00
21240;BME280;10778;48.962;9.018;2024-03-02T05:33:17;97934.88;;;0.49;100.00
21240;BME280;10778;48.962;9.018;2024-03-02T05:35:44;97933.31;;;0.60;100.00
21240;BME280;10778;48.962;9.018;2024-03-02T05:38:09;97926.59;;;0.57;100.00
21240;BME280;10778;48.962;9.018;2024-03-02T05:40:35;97938.28;;;0.37;100.00
21240;BME280;10778;48.962;9.018;2024-03-02T05:43:02;97942.22;;;0.30;100.00
21240;BME280;10778;48.962;9.018;2024-03-02T05:45:27;97935.03;;;0.20;100.00
21240;BME280;10778;48.962;9.018;2024-03-02T05:47:53;97945.09;;;0.25;100.00
21240;BME280;10778;48.962;9.018;2024-03-02T05:50:19;97946.25;;;0.34;100.00
21240;BME280;10778;48.962;9.018;2024-03-02T05:52:45;97943.88;;;0.44;100.00
21240;BME280;10778;48.962;9.018;2024-03-02T05:55:12;97950.91;;;0.54;100.00
21240;BME280;10778;48.962;9.018;2024-03-02T05:57:38;97946.16;;;0.61;100.00
21240;BME280;10778;48.962;9.018;2024-03-02T06:00:10;97949.44;;;0.76;100.00
21240;BME280;10778;48.962;9.018;2024-03-02T06:02:40;97957.75;;;0.81;100.00
21240;BME280;10778;48.962;9.018;2024-03-02T06:05:06;97949.03;;;0.95;100.00
21240;BME280;10778;48.962;9.018;2024-03-02T06:07:35;97951.59;;;1.08;100.00
21240;BME280;10778;48.962;9.018;2024-03-02T06:10:01;97956.38;;;1.15;100.00
21240;BME280;10778;48.962;9.018;2024-03-02T06:12:27;97947.19;;;1.35;100.00
21240;BME280;10778;48.962;9.018;2024-03-02T06:14:53;97939.81;;;1.41;100.00
21240;BME280;10778;48.962;9.018;2024-03-02T06:17:19;97939.31;;;1.36;100.00
21240;BME280;10778;48.962;9.018;2024-03-02T06:19:45;97940.16;;;1.24;100.00
21240;BME280;10778;48.962;9.018;2024-03-02T06:22:12;97927.44;;;3.32;100.00
21240;BME280;10778;48.962;9.018;2024-03-02T06:24:38;97939.75;;;3.30;100.00
21240;BME280;10778;48.962;9.018;2024-03-02T06:27:05;97944.38;;;1.87;100.00
21240;BME280;10778;48.962;9.018;2024-03-02T06:29:34;97944.88;;;2.27;100.00
21240;BME280;10778;48.962;9.018;2024-03-02T06:32:00;97944.06;;;2.38;100.00
21240;BME280;10778;48.962;9.018;2024-03-02T06:34:26;97947.97;;;3.47;100.00
21240;BME280;10778;48.962;9.018;2024-03-02T06:36:52;97947.44;;;3.32;100.00
21240;BME280;10778;48.962;9.018;2024-03-02T06:39:18;97940.09;;;3.37;100.00
21240;BME280;10778;48.962;9.018;2024-03-02T06:41:44;97937.75;;;3.66;100.00
21240;BME280;10778;48.962;9.018;2024-03-02T06:44:10;97953.63;;;3.63;100.00
21240;BME280;10778;48.962;9.018;2024-03-02T06:46:36;97948.03;;;4.01;100.00
21240;BME280;10778;48.962;9.018;2024-03-02T06:49:02;97950.38;;;4.36;100.00
21240;BME280;10778;48.962;9.018;2024-03-02T06:51:30;97949.72;;;4.23;100.00
21240;BME280;10778;48.962;9.018;2024-03-02T06:53:56;97952.06;;;4.05;100.00
21240;BME280;10778;48.962;9.018;2024-03-02T06:56:22;97955.34;;;3.74;100.00
21240;BME280;10778;48.962;9.018;2024-03-02T06:58:48;97955.03;;;3.67;100.00
21240;BME280;10778;48.962;9.018;2024-03-02T07:01:14;97954.09;;;3.68;100.00
21240;BME280;10778;48.962;9.018;2024-03-02T07:03:40;97949.34;;;3.74;100.00
21240;BME280;10778;48.962;9.018;2024-03-02T07:06:06;97951.00;;;3.75;100.00
21240;BME280;10778;48.962;9.018;2024-03-02T07:08:33;97941.03;;;4.12;100.00
21240;BME280;10778;48.962;9.018;2024-03-02T07:10:59;97942.47;;;4.69;100.00
21240;BME280;10778;48.962;9.018;2024-03-02T07:13:25;97945.66;;;5.04;100.00
21240;BME280;10778;48.962;9.018;2024-03-02T07:15:51;97938.06;;;5.32;100.00
21240;BME280;10778;48.962;9.018;2024-03-02T07:18:30;97944.44;;;5.88;100.00
21240;BME280;10778;48.962;9.018;2024-03-02T07:20:59;97956.72;;;6.07;98.12
21240;BME280;10778;48.962;9.018;2024-03-02T07:23:27;97950.84;;;5.45;100.00
21240;BME280;10778;48.962;9.018;2024-03-02T07:25:53;97962.66;;;5.08;100.00
21240;BME280;10778;48.962;9.018;2024-03-02T07:28:23;97955.41;;;4.80;100.00
21240;BME280;10778;48.962;9.018;2024-03-02T07:30:59;97950.00;;;4.62;100.00
21240;BME280;10778;48.962;9.018;2024-03-02T07:33:25;97949.41;;;4.37;100.00
21240;BME280;10778;48.962;9.018;2024-03-02T07:35:52;97956.34;;;4.48;100.00
21240;BME280;10778;48.962;9.018;2024-03-02T07:38:19;97954.50;;;4.39;100.00
21240;BME280;10778;48.962;9.018;2024-03-02T07:40:45;97951.44;;;4.34;100.00
21240;BME280;10778;48.962;9.018;2024-03-02T07:43:11;97957.22;;;4.37;100.00
21240;BME280;10778;48.962;9.018;2024-03-02T07:45:37;97961.59;;;4.16;100.00
21240;BME280;10778;48.962;9.018;2024-03-02T07:48:04;97960.16;;;3.90;100.00
21240;BME280;10778;48.962;9.018;2024-03-02T07:50:30;97962.22;;;4.08;100.00
21240;BME280;10778;48.962;9.018;2024-03-02T07:52:56;97968.94;;;4.10;100.00
21240;BME280;10778;48.962;9.018;2024-03-02T07:55:22;97971.44;;;4.12;100.00
21240;BME280;10778;48.962;9.018;2024-03-02T07:57:50;97968.31;;;4.18;100.00
21240;BME280;10778;48.962;9.018;2024-03-02T08:00:16;97965.66;;;5.03;100.00
21240;BME280;10778;48.962;9.018;2024-03-02T08:02:42;97961.09;;;5.26;100.00
21240;BME280;10778;48.962;9.018;2024-03-02T08:05:09;97961.09;;;4.95;100.00
21240;BME280;10778;48.962;9.018;2024-03-02T08:07:35;97966.19;;;5.28;100.00
21240;BME280;10778;48.962;9.018;2024-03-02T08:10:01;97962.75;;;5.27;100.00
21240;BME280;10778;48.962;9.018;2024-03-02T08:12:27;97972.00;;;5.41;100.00
21240;BME280;10778;48.962;9.018;2024-03-02T08:14:53;97969.59;;;5.89;100.00
21240;BME280;10778;48.962;9.018;2024-03-02T08:17:19;97968.69;;;6.30;99.31
21240;BME280;10778;48.962;9.018;2024-03-02T08:19:45;97960.84;;;7.25;96.54
21240;BME280;10778;48.962;9.018;2024-03-02T08:22:11;97952.63;;;8.20;90.67
21240;BME280;10778;48.962;9.018;2024-03-02T08:24:37;97944.91;;;9.16;85.53
21240;BME280;10778;48.962;9.018;2024-03-02T08:27:03;97935.63;;;10.48;78.65
21240;BME280;10778;48.962;9.018;2024-03-02T08:29:30;97917.41;;;12.36;71.73
21240;BME280;10778;48.962;9.018;2024-03-02T08:31:56;97915.63;;;13.27;66.01
21240;BME280;10778;48.962;9.018;2024-03-02T08:34:22;97915.28;;;13.88;64.93
21240;BME280;10778;48.962;9.018;2024-03-02T08:36:48;97921.53;;;13.44;64.38
21240;BME280;10778;48.962;9.018;2024-03-02T08:39:14;97924.16;;;13.29;65.99
21240;BME280;10778;48.962;9.018;2024-03-02T08:41:46;97910.84;;;13.89;63.21
21240;BME280;10778;48.962;9.018;2024-03-02T08:44:13;97902.16;;;14.74;61.70
21240;BME280;10778;48.962;9.018;2024-03-02T08:46:39;97902.56;;;14.49;61.62
21240;BME280;10778;48.962;9.018;2024-03-02T08:49:06;97903.47;;;14.91;61.15
21240;BME280;10778;48.962;9.018;2024-03-02T08:51:32;97901.91;;;15.11;60.33
21240;BME280;10778;48.962;9.018;2024-03-02T08:53:59;97885.81;;;16.62;57.13
21240;BME280;10778;48.962;9.018;2024-03-02T08:56:25;97892.81;;;16.23;57.44
21240;BME280;10778;48.962;9.018;2024-03-02T08:58:51;97884.34;;;17.00;53.82
21240;BME280;10778;48.962;9.018;2024-03-02T09:01:18;97890.84;;;17.04;53.83
21240;BME280;10778;48.962;9.018;2024-03-02T09:03:45;97905.06;;;16.24;55.29
21240;BME280;10778;48.962;9.018;2024-03-02T09:06:13;97892.13;;;16.74;53.33
21240;BME280;10778;48.962;9.018;2024-03-02T09:08:39;97895.47;;;16.16;55.34
21240;BME280;10778;48.962;9.018;2024-03-02T09:11:06;97892.28;;;16.93;53.23
21240;BME280;10778;48.962;9.018;2024-03-02T09:13:33;97893.66;;;17.94;51.92
21240;BME280;10778;48.962;9.018;2024-03-02T09:15:59;97896.53;;;17.60;52.55
21240;BME280;10778;48.962;9.018;2024-03-02T09:18:25;97901.59;;;17.29;52.69
21240;BME280;10778;48.962;9.018;2024-03-02T09:20:51;97896.09;;;17.63;51.96
21240;BME280;10778;48.962;9.018;2024-03-02T09:23:17;97884.25;;;17.91;51.93
21240;BME280;10778;48.962;9.018;2024-03-02T09:25:43;97889.31;;;17.35;52.46
21240;BME280;10778;48.962;9.018;2024-03-02T09:28:10;97880.44;;;17.80;51.29
21240;BME280;10778;48.962;9.018;2024-03-02T09:30:36;97884.28;;;17.52;50.79
21240;BME280;10778;48.962;9.018;2024-03-02T09:33:03;97880.84;;;18.41;50.52
21240;BME280;10778;48.962;9.018;2024-03-02T09:35:29;97874.63;;;18.66;48.26
21240;BME280;10778;48.962;9.018;2024-03-02T09:37:55;97871.09;;;18.28;49.67
21240;BME280;10778;48.962;9.018;2024-03-02T09:40:22;97872.97;;;18.28;49.83
21240;BME280;10778;48.962;9.018;2024-03-02T09:42:48;97867.31;;;17.85;49.95
21240;BME280;10778;48.962;9.018;2024-03-02T09:45:23;97861.28;;;17.71;50.78
21240;BME280;10778;48.962;9.018;2024-03-02T09:47:49;97858.50;;;17.59;50.80
21240;BME280;10778;48.962;9.018;2024-03-02T09:50:16;97850.84;;;17.70;50.39
21240;BME280;10778;48.962;9.018;2024-03-02T09:52:43;97847.66;;;17.86;50.31
21240;BME280;10778;48.962;9.018;2024-03-02T09:55:09;97858.28;;;17.22;50.97
21240;BME280;10778;48.962;9.018;2024-03-02T09:57:37;97849.19;;;17.37;50.84
21240;BME280;10778;48.962;9.018;2024-03-02T10:00:04;97843.75;;;17.89;49.64
21240;BME280;10778;48.962;9.018;2024-03-02T10:02:30;97848.78;;;17.97;49.92
21240;BME280;10778;48.962;9.018;2024-03-02T10:04:56;97842.44;;;17.73;49.83
21240;BME280;10778;48.962;9.018;2024-03-02T10:07:22;97844.38;;;18.79;48.01
21240;BME280;10778;48.962;9.018;2024-03-02T10:09:49;97842.78;;;18.34;49.45
21240;BME280;10778;48.962;9.018;2024-03-02T10:12:16;97845.28;;;17.78;49.52
21240;BME280;10778;48.962;9.018;2024-03-02T10:14:42;97846.34;;;18.02;48.76
21240;BME280;10778;48.962;9.018;2024-03-02T10:17:11;97845.53;;;17.38;50.89
21240;BME280;10778;48.962;9.018;2024-03-02T10:19:38;97855.28;;;16.98;51.58
21240;BME280;10778;48.962;9.018;2024-03-02T10:22:06;97842.75;;;17.19;50.30
21240;BME280;10778;48.962;9.018;2024-03-02T10:24:37;97846.94;;;17.40;51.48
21240;BME280;10778;48.962;9.018;2024-03-02T10:27:17;97836.28;;;17.01;51.86
21240;BME280;10778;48.962;9.018;2024-03-02T10:29:47;97833.53;;;16.69;51.71
21240;BME280;10778;48.962;9.018;2024-03-02T10:32:13;97839.03;;;16.68;53.48
21240;BME280;10778;48.962;9.018;2024-03-02T10:34:44;97824.88;;;17.40;50.97
21240;BME280;10778;48.962;9.018;2024-03-02T10:37:10;97833.38;;;16.44;51.42
21240;BME280;10778;48.962;9.018;2024-03-02T10:39:37;97828.84;;;16.58;51.41
21240;BME280;10778;48.962;9.018;2024-03-02T10:42:06;97827.97;;;16.77;51.25
21240;BME280;10778;48.962;9.018;2024-03-02T10:44:32;97827.66;;;16.54;51.90
21240;BME280;10778;48.962;9.018;2024-03-02T10:47:00;97825.66;;;16.22;52.53
21240;BME280;10778;48.962;9.018;2024-03-02T10:49:29;97832.19;;;16.13;52.59
21240;BME280;10778;48.962;9.018;2024-03-02T10:51:55;97819.13;;;16.18;53.00
21240;BME280;10778;48.962;9.018;2024-03-02T10:54:21;97820.75;;;16.32;52.91
21240;BME280;10778;48.962;9.018;2024-03-02T10:56:53;97811.47;;;16.62;51.06
21240;BME280;10778;48.962;9.018;2024-03-02T10:59:33;97816.47;;;16.31;52.29
21240;BME280;10778;48.962;9.018;2024-03-02T11:02:00;97813.03;;;16.11;53.10
21240;BME280;10778;48.962;9.018;2024-03-02T11:04:29;97810.47;;;16.49;54.08
21240;BME280;10778;48.962;9.018;2024-03-02T11:07:07;97802.34;;;16.44;53.91
21240;BME280;10778;48.962;9.018;2024-03-02T11:09:41;97802.34;;;16.38;52.51
21240;BME280;10778;48.962;9.018;2024-03-02T11:12:28;97793.78;;;16.42;53.13
21240;BME280;10778;48.962;9.018;2024-03-02T11:14:55;97799.50;;;16.32;52.98
21240;BME280;10778;48.962;9.018;2024-03-02T11:17:22;97796.22;;;16.44;53.83
21240;BME280;10778;48.962;9.018;2024-03-02T11:19:49;97792.34;;;16.40;53.22
21240;BME280;10778;48.962;9.018;2024-03-02T11:22:16;97783.84;;;16.04;51.59
21240;BME280;10778;48.962;9.018;2024-03-02T11:24:49;97780.63;;;16.61;51.89
21240;BME280;10778;48.962;9.018;2024-03-02T11:33:06;97767.97;;;16.63;52.84
21240;BME280;10778;48.962;9.018;2024-03-02T11:35:41;97752.72;;;16.45;52.01
21240;BME280;10778;48.962;9.018;2024-03-02T11:38:14;97748.31;;;16.71;51.13
21240;BME280;10778;48.962;9.018;2024-03-02T11:40:40;97747.84;;;16.35;53.08
21240;BME280;10778;48.962;9.018;2024-03-02T11:43:07;97755.41;;;16.38;53.16
21240;BME280;10778;48.962;9.018;2024-03-02T11:45:35;97741.19;;;15.99;51.89
21240;BME280;10778;48.962;9.018;2024-03-02T11:48:05;97735.44;;;16.15;51.57
21240;BME280;10778;48.962;9.018;2024-03-02T11:50:49;97733.59;;;16.23;52.79
21240;BME280;10778;48.962;9.018;2024-03-02T11:53:16;97729.06;;;16.37;51.98
21240;BME280;10778;48.962;9.018;2024-03-02T11:59:01;97718.88;;;16.27;51.28
21240;BME280;10778;48.962;9.018;2024-03-02T12:01:28;97719.00;;;16.45;50.57
21240;BME280;10778;48.962;9.018;2024-03-02T12:03:54;97712.19;;;16.63;50.84
21240;BME280;10778;48.962;9.018;2024-03-02T12:06:22;97710.78;;;16.08;51.47
21240;BME280;10778;48.962;9.018;2024-03-02T12:08:52;97701.94;;;16.28;50.95
21240;BME280;10778;48.962;9.018;2024-03-02T12:11:20;97700.38;;;15.86;50.67
21240;BME280;10778;48.962;9.018;2024-03-02T12:13:53;97700.22;;;15.61;51.46
21240;BME280;10778;48.962;9.018;2024-03-02T12:16:24;97703.44;;;15.90;52.28
21240;BME280;10778;48.962;9.018;2024-03-02T12:18:50;97694.44;;;16.11;50.42
21240;BME280;10778;48.962;9.018;2024-03-02T12:21:16;97697.84;;;16.25;50.78
21240;BME280;10778;48.962;9.018;2024-03-02T12:23:43;97696.44;;;16.23;50.44
21240;BME280;10778;48.962;9.018;2024-03-02T12:26:09;97687.69;;;16.09;51.45
21240;BME280;10778;48.962;9.018;2024-03-02T12:28:35;97684.44;;;16.00;50.75
21240;BME280;10778;48.962;9.018;2024-03-02T12:31:01;97690.25;;;16.42;49.58
21240;BME280;10778;48.962;9.018;2024-03-02T12:33:27;97682.22;;;16.56;50.55
21240;BME280;10778;48.962;9.018;2024-03-02T12:35:56;97676.34;;;17.18;50.36
21240;BME280;10778;48.962;9.018;2024-03-02T12:38:22;97672.59;;;16.93;48.99
21240;BME280;10778;48.962;9.018;2024-03-02T12:40:51;97669.34;;;16.91;49.06
21240;BME280;10778;48.962;9.018;2024-03-02T12:43:18;97675.47;;;16.92;48.71
21240;BME280;10778;48.962;9.018;2024-03-02T12:45:44;97661.91;;;16.68;48.46
21240;BME280;10778;48.962;9.018;2024-03-02T12:48:10;97655.13;;;17.37;48.52
21240;BME280;10778;48.962;9.018;2024-03-02T12:50:36;97667.03;;;17.09;47.47
21240;BME280;10778;48.962;9.018;2024-03-02T12:53:02;97656.38;;;17.09;47.66
21240;BME280;10778;48.962;9.018;2024-03-02T12:55:28;97657.84;;;16.72;48.15
21240;BME280;10778;48.962;9.018;2024-03-02T12:57:55;97653.25;;;16.86;47.53
21240;BME280;10778;48.962;9.018;2024-03-02T13:00:22;97652.88;;;16.76;48.31
21240;BME280;10778;48.962;9.018;2024-03-02T13:02:49;97653.34;;;16.98;47.87
21240;BME280;10778;48.962;9.018;2024-03-02T13:05:16;97654.56;;;17.02;47.30
21240;BME280;10778;48.962;9.018;2024-03-02T13:07:42;97648.03;;;17.30;47.38
21240;BME280;10778;48.962;9.018;2024-03-02T13:10:08;97646.19;;;17.56;45.92
21240;BME280;10778;48.962;9.018;2024-03-02T13:12:35;97635.13;;;17.78;46.96